Monday, November 24, 2014
09:18 UTC
  |  Log In   |  Register Free
Airport Search:

Lawrence Smith Memorial Airport
(KLRY)

Lawrence Smith Memorial Airport Diagram
No Airport Diagram Available

FAA data valid effective November 13, 2014 - January 08, 2015 (unless otherwise noted).

 
 
 
 
 
 
 
 
 
 
 
 
 
 

Current Aviation Weather for Lawrence Smith Memorial Airport (KLRY)

METAR data is unavailable for LRY. The nearest METAR location is at KLXT (21 nm NW from LRY).

The most recent METAR observation for KLXT was updated at: 0914
METAR Summary (Translated METAR)
KLXT
220719Z AUTO 18011KT 1 3/4SM BR OVC003 09/08 A3004 RMK AO2 T00890083
(21 nm NW from KLRY)
KOJC
240853Z AUTO 31005KT 10SM OVC031 03/M03 A2957 RMK AO2 PK WND 32030/0814 SLP014 T00281028 53028
(23.3 nm NW from KLRY)
TAF
No TAF information found within 50 nm of KLXT
  Airport Weather Conditions for KLRY

Current weather conditions are
not available for LRY


The nearest NOAA weather station
is at LXT, (21 nm NW from LRY)
  
 Current Weather at LXT
48° F
Fog/Mist
South winds at 12.7 mph
LXT NOAA Radar

Pressure: 30.05 in
Humidity: 93%
Wind: South at 12.7 MPH (11 KT)
Dew Point: 46.0°F
Visibility: 3.00 mi


Airport Weather Forecast for KLRY

Translated METAR and TAF for KLXT
Translated METAR for KLXT (0913 UTC 24 November 2014)
found at http://aviationweather.gov/adds/metars/
 
You entered "KLXT"

Sorry, either there are no data available for your request or you did not enter any valid ICAO airport abbreviations.

See stations.txt for a list of known METAR and TAF locations. Then go back to the ADDS METARs or TAFs page and try again
 
Please try again and, if problems persist, then send mail to ncep.awc.adds@noaa.gov

Find All Airport Services Find A Hotel Find A Rental Car Find A Golf Course Find A Restaurant $100 Hamburger



FBO's on the Field
FBO Company Facility Photos Services Transportation Aviation Fuel Prices: Prices include tax
Catering Weather Repair Courtesy Rental Type 100LL JetA JetA+ MOGAS 8087
 
City of Harrisonville

This FBO has not yet been rated
FS:Phillips 66
Last Updated: Oct-23
Login to update fuel prices
SS:
Contact City of HarrisonvilleMore FBO Information
 
Add another FBO Facility Photos Catering Weather Repair Courtesy Rental Type 100LL JetA JetA+ MOGAS 8087
Services Transportation Aviation Fuel Prices: Prices include tax


model-print
model-print
model-print
model-print